sensor_id;sensor_type;location;lat;lon;timestamp;P1;durP1;ratioP1;P2;durP2;ratioP2
20928;SDS011;21895;47.072;15.132;2022-11-15T18:28:34;51.63;;;21.80;;
20928;SDS011;21895;47.072;15.132;2022-11-15T18:31:05;49.67;;;20.83;;
20928;SDS011;21895;47.072;15.132;2022-11-15T18:33:40;47.47;;;19.90;;
20928;SDS011;21895;47.072;15.132;2022-11-15T18:36:08;52.03;;;21.13;;
20928;SDS011;21895;47.072;15.132;2022-11-15T18:38:56;55.43;;;20.33;;
20928;SDS011;21895;47.072;15.132;2022-11-15T18:41:27;53.97;;;20.73;;
20928;SDS011;21895;47.072;15.132;2022-11-15T18:43:54;57.53;;;22.10;;
20928;SDS011;21895;47.072;15.132;2022-11-15T18:46:26;52.10;;;20.97;;
20928;SDS011;21895;47.072;15.132;2022-11-15T18:48:57;57.23;;;21.83;;
20928;SDS011;21895;47.072;15.132;2022-11-15T18:51:26;51.93;;;19.33;;
20928;SDS011;21895;47.072;15.132;2022-11-15T18:53:57;52.73;;;22.07;;
20928;SDS011;21895;47.072;15.132;2022-11-15T18:56:26;50.37;;;21.63;;
20928;SDS011;21895;47.072;15.132;2022-11-15T18:58:55;56.40;;;21.83;;
20928;SDS011;21895;47.072;15.132;2022-11-15T19:01:26;54.73;;;21.23;;
20928;SDS011;21895;47.072;15.132;2022-11-15T19:04:01;53.60;;;20.67;;
20928;SDS011;21895;47.072;15.132;2022-11-15T19:06:36;54.83;;;20.57;;
20928;SDS011;21895;47.072;15.132;2022-11-15T19:09:05;49.37;;;20.63;;
20928;SDS011;21895;47.072;15.132;2022-11-15T19:11:35;51.43;;;20.97;;
20928;SDS011;21895;47.072;15.132;2022-11-15T19:14:05;54.63;;;21.73;;
20928;SDS011;21895;47.072;15.132;2022-11-15T19:16:44;48.47;;;20.73;;
20928;SDS011;21895;47.072;15.132;2022-11-15T19:19:20;59.73;;;22.50;;
20928;SDS011;21895;47.072;15.132;2022-11-15T19:21:49;55.17;;;19.70;;
20928;SDS011;21895;47.072;15.132;2022-11-15T19:24:16;53.87;;;20.50;;
20928;SDS011;21895;47.072;15.132;2022-11-15T19:26:43;57.37;;;22.77;;
20928;SDS011;21895;47.072;15.132;2022-11-15T19:29:10;50.30;;;21.07;;
20928;SDS011;21895;47.072;15.132;2022-11-15T19:31:38;57.37;;;22.67;;
20928;SDS011;21895;47.072;15.132;2022-11-15T19:34:05;48.53;;;20.30;;
20928;SDS011;21895;47.072;15.132;2022-11-15T19:36:34;52.70;;;19.93;;
20928;SDS011;21895;47.072;15.132;2022-11-15T19:39:04;52.30;;;20.50;;
20928;SDS011;21895;47.072;15.132;2022-11-15T19:41:34;52.97;;;19.63;;
20928;SDS011;21895;47.072;15.132;2022-11-15T19:44:03;51.67;;;20.33;;
20928;SDS011;21895;47.072;15.132;2022-11-15T19:46:30;53.87;;;21.33;;
20928;SDS011;21895;47.072;15.132;2022-11-15T19:48:57;56.43;;;22.07;;
20928;SDS011;21895;47.072;15.132;2022-11-15T19:51:25;82.50;;;26.67;;
20928;SDS011;21895;47.072;15.132;2022-11-15T19:53:55;155.87;;;44.67;;
20928;SDS011;21895;47.072;15.132;2022-11-15T19:56:25;81.73;;;29.47;;
20928;SDS011;21895;47.072;15.132;2022-11-15T19:58:52;53.50;;;19.63;;
20928;SDS011;21895;47.072;15.132;2022-11-15T20:01:25;56.17;;;21.07;;
20928;SDS011;21895;47.072;15.132;2022-11-15T20:03:54;46.80;;;19.47;;
20928;SDS011;21895;47.072;15.132;2022-11-15T20:06:24;52.13;;;20.50;;
20928;SDS011;21895;47.072;15.132;2022-11-15T20:08:53;53.07;;;21.40;;
20928;SDS011;21895;47.072;15.132;2022-11-15T20:11:20;52.53;;;20.80;;
20928;SDS011;21895;47.072;15.132;2022-11-15T20:13:47;47.70;;;19.40;;
20928;SDS011;21895;47.072;15.132;2022-11-15T20:16:23;48.17;;;18.50;;
20928;SDS011;21895;47.072;15.132;2022-11-15T20:18:50;44.30;;;18.90;;
20928;SDS011;21895;47.072;15.132;2022-11-15T20:21:17;50.13;;;19.03;;
20928;SDS011;21895;47.072;15.132;2022-11-15T20:23:45;54.77;;;20.83;;
20928;SDS011;21895;47.072;15.132;2022-11-15T20:26:12;54.87;;;21.23;;
20928;SDS011;21895;47.072;15.132;2022-11-15T20:28:39;51.90;;;20.20;;
20928;SDS011;21895;47.072;15.132;2022-11-15T20:31:06;49.10;;;21.33;;
20928;SDS011;21895;47.072;15.132;2022-11-15T20:33:34;53.90;;;19.60;;
20928;SDS011;21895;47.072;15.132;2022-11-15T20:36:08;55.43;;;21.27;;
20928;SDS011;21895;47.072;15.132;2022-11-15T20:38:37;53.07;;;20.97;;
20928;SDS011;21895;47.072;15.132;2022-11-15T20:41:03;45.57;;;19.80;;
20928;SDS011;21895;47.072;15.132;2022-11-15T20:43:30;63.37;;;22.43;;
20928;SDS011;21895;47.072;15.132;2022-11-15T20:45:57;52.03;;;21.53;;
20928;SDS011;21895;47.072;15.132;2022-11-15T20:48:23;59.87;;;22.47;;
20928;SDS011;21895;47.072;15.132;2022-11-15T20:50:50;55.20;;;22.10;;
20928;SDS011;21895;47.072;15.132;2022-11-15T20:53:17;53.90;;;21.40;;
20928;SDS011;21895;47.072;15.132;2022-11-15T20:55:45;52.07;;;21.03;;
20928;SDS011;21895;47.072;15.132;2022-11-15T20:58:15;51.07;;;19.83;;
20928;SDS011;21895;47.072;15.132;2022-11-15T21:00:43;47.43;;;19.63;;
20928;SDS011;21895;47.072;15.132;2022-11-15T21:03:10;52.13;;;20.23;;
20928;SDS011;21895;47.072;15.132;2022-11-15T21:05:39;48.90;;;19.23;;
20928;SDS011;21895;47.072;15.132;2022-11-15T21:08:09;48.27;;;20.20;;
20928;SDS011;21895;47.072;15.132;2022-11-15T21:10:37;49.90;;;20.20;;
20928;SDS011;21895;47.072;15.132;2022-11-15T21:13:23;49.73;;;20.03;;
20928;SDS011;21895;47.072;15.132;2022-11-15T21:15:53;46.30;;;20.37;;
20928;SDS011;21895;47.072;15.132;2022-11-15T21:18:22;53.67;;;21.70;;
20928;SDS011;21895;47.072;15.132;2022-11-15T21:20:49;50.33;;;21.13;;
20928;SDS011;21895;47.072;15.132;2022-11-15T21:23:16;50.17;;;20.80;;
20928;SDS011;21895;47.072;15.132;2022-11-15T21:25:49;53.07;;;21.53;;
20928;SDS011;21895;47.072;15.132;2022-11-15T21:28:16;49.93;;;19.40;;
20928;SDS011;21895;47.072;15.132;2022-11-15T21:30:53;51.30;;;20.67;;
20928;SDS011;21895;47.072;15.132;2022-11-15T21:33:24;51.20;;;19.10;;
20928;SDS011;21895;47.072;15.132;2022-11-15T21:35:55;48.87;;;19.87;;
20928;SDS011;21895;47.072;15.132;2022-11-15T21:38:22;49.53;;;19.90;;
20928;SDS011;21895;47.072;15.132;2022-11-15T21:40:50;54.47;;;21.63;;
20928;SDS011;21895;47.072;15.132;2022-11-15T21:43:17;58.00;;;22.53;;
20928;SDS011;21895;47.072;15.132;2022-11-15T21:45:55;52.87;;;21.80;;
20928;SDS011;21895;47.072;15.132;2022-11-15T21:48:27;49.60;;;21.43;;
20928;SDS011;21895;47.072;15.132;2022-11-15T21:50:56;51.10;;;19.90;;
20928;SDS011;21895;47.072;15.132;2022-11-15T21:53:25;49.20;;;20.47;;
20928;SDS011;21895;47.072;15.132;2022-11-15T21:55:53;60.93;;;21.73;;
20928;SDS011;21895;47.072;15.132;2022-11-15T21:58:20;46.47;;;20.33;;
20928;SDS011;21895;47.072;15.132;2022-11-15T22:00:47;52.63;;;20.97;;
20928;SDS011;21895;47.072;15.132;2022-11-15T22:03:33;53.10;;;19.67;;
20928;SDS011;21895;47.072;15.132;2022-11-15T22:06:00;57.80;;;21.03;;
20928;SDS011;21895;47.072;15.132;2022-11-15T22:08:27;52.27;;;20.73;;
20928;SDS011;21895;47.072;15.132;2022-11-15T22:10:53;53.60;;;21.20;;
20928;SDS011;21895;47.072;15.132;2022-11-15T22:13:21;57.20;;;21.87;;
20928;SDS011;21895;47.072;15.132;2022-11-15T22:15:49;49.00;;;19.87;;
20928;SDS011;21895;47.072;15.132;2022-11-15T22:18:16;46.90;;;19.30;;
20928;SDS011;21895;47.072;15.132;2022-11-15T22:20:54;47.33;;;19.50;;
20928;SDS011;21895;47.072;15.132;2022-11-15T22:23:34;44.80;;;17.87;;
20928;SDS011;21895;47.072;15.132;2022-11-15T22:26:01;47.43;;;19.00;;
20928;SDS011;21895;47.072;15.132;2022-11-15T22:28:29;51.43;;;17.63;;
20928;SDS011;21895;47.072;15.132;2022-11-15T22:30:56;44.20;;;17.57;;
20928;SDS011;21895;47.072;15.132;2022-11-15T22:33:24;42.27;;;17.53;;
20928;SDS011;21895;47.072;15.132;2022-11-15T22:35:53;50.40;;;17.60;;
20928;SDS011;21895;47.072;15.132;2022-11-15T22:38:21;41.80;;;17.23;;
20928;SDS011;21895;47.072;15.132;2022-11-15T22:40:48;40.70;;;16.37;;
20928;SDS011;21895;47.072;15.132;2022-11-15T22:43:15;38.83;;;17.20;;
20928;SDS011;21895;47.072;15.132;2022-11-15T22:48:31;51.27;;;16.03;;
20928;SDS011;21895;47.072;15.132;2022-11-15T22:51:01;35.93;;;16.40;;
20928;SDS011;21895;47.072;15.132;2022-11-15T22:53:28;37.90;;;16.70;;
20928;SDS011;21895;47.072;15.132;2022-11-15T22:55:58;38.60;;;15.43;;
20928;SDS011;21895;47.072;15.132;2022-11-15T22:58:28;35.00;;;15.47;;
20928;SDS011;21895;47.072;15.132;2022-11-15T23:00:58;35.77;;;15.73;;
20928;SDS011;21895;47.072;15.132;2022-11-15T23:03:28;35.87;;;15.23;;
20928;SDS011;21895;47.072;15.132;2022-11-15T23:06:00;43.97;;;17.57;;
20928;SDS011;21895;47.072;15.132;2022-11-15T23:08:31;47.37;;;16.73;;
20928;SDS011;21895;47.072;15.132;2022-11-15T23:10:59;38.00;;;16.50;;
20928;SDS011;21895;47.072;15.132;2022-11-15T23:13:45;41.23;;;17.00;;
20928;SDS011;21895;47.072;15.132;2022-11-15T23:16:17;42.53;;;17.43;;
20928;SDS011;21895;47.072;15.132;2022-11-15T23:18:48;49.43;;;17.63;;
20928;SDS011;21895;47.072;15.132;2022-11-15T23:21:23;53.47;;;17.70;;
20928;SDS011;21895;47.072;15.132;2022-11-15T23:24:17;51.63;;;16.80;;
20928;SDS011;21895;47.072;15.132;2022-11-15T23:26:45;42.03;;;16.60;;
20928;SDS011;21895;47.072;15.132;2022-11-15T23:29:15;44.97;;;17.27;;
20928;SDS011;21895;47.072;15.132;2022-11-15T23:31:43;40.07;;;15.53;;
20928;SDS011;21895;47.072;15.132;2022-11-15T23:34:30;36.17;;;15.80;;
20928;SDS011;21895;47.072;15.132;2022-11-15T23:36:59;37.43;;;15.17;;
20928;SDS011;21895;47.072;15.132;2022-11-15T23:39:26;34.37;;;14.37;;
20928;SDS011;21895;47.072;15.132;2022-11-15T23:41:52;34.47;;;13.57;;
20928;SDS011;21895;47.072;15.132;2022-11-15T23:44:19;28.30;;;11.67;;
20928;SDS011;21895;47.072;15.132;2022-11-15T23:46:46;28.43;;;12.33;;
20928;SDS011;21895;47.072;15.132;2022-11-15T23:49:12;30.20;;;11.90;;
20928;SDS011;21895;47.072;15.132;2022-11-15T23:51:39;25.40;;;11.37;;
20928;SDS011;21895;47.072;15.132;2022-11-15T23:54:05;30.87;;;12.97;;
20928;SDS011;21895;47.072;15.132;2022-11-15T23:56:32;27.77;;;13.23;;
20928;SDS011;21895;47.072;15.132;2022-11-15T23:58:59;27.93;;;11.80;;
